Challenge Point — 3EQN2 — position and weather

sailwx.info

Track history (hours):
 
Tides and Currents Weather Stations Pressure Air Temp Water Temp Dewpoint Dewpoint Depression Visibility Wind Speed Wind Dir Waves Ship Positions

Challenge Point

Last reported at 2018-May-15 23:16 UTC. Time now 2018-May-20 21:48 UTC.
Position N 40°29' W 073°54'.

Length 180 m; draft 7.4 m.

Type: Tanker. MMSI: 352143000.

Date/timePositionNaut miles runAvg speedWind from/ knotsBaromVisibWave heightAir tempDewpointWater temp
2018-May-15 23:16N 40°29' W 073°54'311.6
2018-May-15 23:00N 40°30' W 073°57'5 9.8
2018-May-15 22:28N 40°34' W 074°02'4 9.0
2018-May-15 22:00N 40°38' W 074°03'0 0.3
2018-May-15 21:28N 40°38' W 074°03'0 0.3
2018-May-15 20:58N 40°38' W 074°03'0 0.0
2018-May-15 20:28N 40°38' W 074°03'0 0.3
2018-May-15 19:58N 40°38' W 074°03'0 0.2
2018-May-15 19:28N 40°38' W 074°03'0 0.0
2018-May-15 18:58N 40°38' W 074°03'0 0.0
2018-May-15 18:28N 40°38' W 074°03'0 0.0
2018-May-15 17:58N 40°38' W 074°03'0 0.0
2018-May-15 17:28N 40°38' W 074°03'0 0.0
2018-May-15 16:55N 40°38' W 074°03'0 0.1
2018-May-15 16:28N 40°38' W 074°03'0 0.1
2018-May-15 15:58N 40°38' W 074°03'0 0.0
2018-May-15 15:28N 40°38' W 074°03'0 0.3
2018-May-15 14:58N 40°38' W 074°03'0 0.2
2018-May-15 14:28N 40°38' W 074°03'0 0.0
2018-May-15 13:55N 40°38' W 074°03'0 0.1
2018-May-15 13:28N 40°38' W 074°03'1 1.6
2018-May-15 13:01N 40°39' W 074°04'4 7.3
2018-May-15 12:30N 40°38' W 074°09'2 5.0
2018-May-15 12:00N 40°38' W 074°12'2 4.0
2018-May-15 11:30N 40°36' W 074°12'1 0.0
2018-May-13 12:10N 40°35' W 074°12'5 2.7
2018-May-13 10:22N 40°30' W 074°11'4 8.2
2018-May-13 09:55N 40°29' W 074°06'4 8.7
2018-May-13 09:30N 40°29' W 074°01'6 9.7
2018-May-13 08:52N 40°26' W 073°54'  
Track history (hours):
 
Tides and Currents Weather Stations Pressure Air Temp Water Temp Dewpoint Dewpoint Depression Visibility Wind Speed Wind Dir Waves Ship Positions

Challenge Point

Last reported at 2018-May-15 23:16 UTC. Time now 2018-May-20 21:48 UTC.
Position N 40°29' W 073°54'.

Length 180 m; draft 7.4 m.

Type: Tanker. MMSI: 352143000.

Date/timePositionNaut miles runAvg speedWind from/ knotsBaromVisibWave heightAir tempDewpointWater temp
2018-May-15 23:16N 40°29' W 073°54'311.6
2018-May-15 23:00N 40°30' W 073°57'5 9.8
2018-May-15 22:28N 40°34' W 074°02'4 9.0
2018-May-15 22:00N 40°38' W 074°03'0 0.3
2018-May-15 21:28N 40°38' W 074°03'0 0.3
2018-May-15 20:58N 40°38' W 074°03'0 0.0
2018-May-15 20:28N 40°38' W 074°03'0 0.3
2018-May-15 19:58N 40°38' W 074°03'0 0.2
2018-May-15 19:28N 40°38' W 074°03'0 0.0
2018-May-15 18:58N 40°38' W 074°03'0 0.0
2018-May-15 18:28N 40°38' W 074°03'0 0.0
2018-May-15 17:58N 40°38' W 074°03'0 0.0
2018-May-15 17:28N 40°38' W 074°03'0 0.0
2018-May-15 16:55N 40°38' W 074°03'0 0.1
2018-May-15 16:28N 40°38' W 074°03'0 0.1
2018-May-15 15:58N 40°38' W 074°03'0 0.0
2018-May-15 15:28N 40°38' W 074°03'0 0.3
2018-May-15 14:58N 40°38' W 074°03'0 0.2
2018-May-15 14:28N 40°38' W 074°03'0 0.0
2018-May-15 13:55N 40°38' W 074°03'0 0.1
2018-May-15 13:28N 40°38' W 074°03'1 1.6
2018-May-15 13:01N 40°39' W 074°04'4 7.3
2018-May-15 12:30N 40°38' W 074°09'2 5.0
2018-May-15 12:00N 40°38' W 074°12'2 4.0
2018-May-15 11:30N 40°36' W 074°12'1 0.0
2018-May-13 12:10N 40°35' W 074°12'5 2.7
2018-May-13 10:22N 40°30' W 074°11'4 8.2
2018-May-13 09:55N 40°29' W 074°06'4 8.7
2018-May-13 09:30N 40°29' W 074°01'6 9.7
2018-May-13 08:52N 40°26' W 073°54'  

Dump ship's entire track history